Chris Hadfield Airport
CYZR : now visible

Airfield :











YOU CAN JOIN US ON...

 
LOGIN :

Register | Disclaimer

   EN    FR    IT 

 









Legend :    VFR   Marginal VFR   IFR   Intensive IFR   Very Intensive IFR
Visi :
Ceiling :
>= 8 km
>= 3000ft
5 to 8 km
1000 to 3000 ft
1500m to 5 km
500 to 1000 ft
800 to 1500m
200 to 500 ft
< 800m
< 200 ft
Symbols :   Thunderstorms  Fog  Heavy snow  Heavy precipitations  Wind > 20 kt







- Airport Elevation : 594 ft
- IATA code : YZR


CYZR - Chris Hadfield

CURRENT METAR :
  • 191600Z AUTO 35020G27KT 9SM OVC006 03/03 A2968 RMK SLP057

EXPIRED METARs :
  • 191556Z AUTO 35022G27KT 9SM OVC006 03/03 A2968 RMK SLP056
  • 191500Z AUTO 36014G21KT 9SM -RA OVC006 03/02 A2968 RMK SLP057
  • 191451Z AUTO 01019KT 9SM -RA OVC006 03/02 A2967 RMK SLP052
  • 191421Z AUTO 36017G22KT 9SM OVC006 03/02 A2966 RMK SLP050
  • 191400Z AUTO 01017G24KT 9SM -RA OVC006 03/03 A2965 RMK SLP045

TAF TAF CYZR
Valid from the 19 at 14:00 until the 20 at 02:00 UTC


191339Z 1914/2002 36015G25KT 5SM -RA BR OVC006
TEMPO 1914/1918 P6SM -RA SCT006 OVC010
FM191800 36018G28KT 5SM -RA BR BKN008 BKN012 OVC050
TEMPO 1918/2002 P6SM -RA BKN012 OVC050 RMK FCST BASED ON AUTO OBS. NXT FCST BY 192000Z
CZYZ FIR / North America



MET'MAP, your aeronautical weather chart ! - Copyright ORBIFLY December 2007 - Disclaimer

ORBIFLY MET'MAP TEAM :

Programming & Development : Alexandra Zaïnal
Concept & Development : Baudouin d'Aumeries
Co-Development & Prog : Marc-Olivier Méhu
Technical & hardware support : Manuel Goepfert

Contact : metmap@orbifly.com




SOURCES & CREDITS :

   NOAA       Earth
Advisory